Time;durP1;ratioP1;P1;durP2;ratioP2;P2;SDS_P1;SDS_P2;PMS_P1;PMS_P2;Temp;Humidity;BMP_temperature;BMP_pressure;BME280_temperature;BME280_humidity;BME280_pressure;Samples;Min_cycle;Max_cycle;Signal;HPM_P1;HPM_P2
2023/01/28 08:18:47;;;;;;;6.47;5.93;;;21.50;51.40;;;;;;6293754;27;20351;-66
2023/01/28 08:33:01;;;;;;;4.37;4.17;;;6.40;53.00;;;;;;6316865;27;20548;-80
2023/01/28 08:36:05;;;;;;;5.57;5.17;;;6.60;50.60;;;;;;6310250;28;20358;-80
2023/01/28 08:39:08;;;;;;;5.50;5.30;;;5.80;50.40;;;;;;6306047;28;20241;-79
2023/01/28 08:42:11;;;;;;;5.40;5.10;;;5.00;50.90;;;;;;6291601;28;20313;-80
2023/01/28 08:45:15;;;;;;;5.47;5.17;;;4.20;51.80;;;;;;6306218;28;20375;-78
2023/01/28 08:48:20;;;;;;;6.37;5.97;;;3.70;52.70;;;;;;6300230;28;20709;-80
2023/01/28 08:51:23;;;;;;;5.93;5.53;;;3.30;52.90;;;;;;6305248;27;20374;-80
2023/01/28 08:54:26;;;;;;;5.47;5.17;;;2.90;53.70;;;;;;6276132;27;20229;-78
2023/01/28 08:57:29;;;;;;;5.80;5.50;;;2.70;54.60;;;;;;6169473;27;20241;-81
2023/01/28 09:00:34;;;;;;;5.60;5.30;;;2.40;54.80;;;;;;6285125;28;20235;-80
2023/01/28 09:03:38;;;;;;;5.37;5.27;;;2.30;55.00;;;;;;6289723;28;20364;-77
2023/01/28 09:06:41;;;;;;;6.03;5.73;;;2.20;55.30;;;;;;6289546;28;20521;-79
2023/01/28 09:09:45;;;;;;;5.63;5.17;;;2.10;55.30;;;;;;6285757;28;20662;-80
2023/01/28 09:12:48;;;;;;;6.03;5.00;;;2.00;56.30;;;;;;6276968;28;20246;-80
2023/01/28 09:15:51;;;;;;;5.27;5.00;;;2.00;56.20;;;;;;6279856;28;20679;-79
2023/01/28 09:18:56;;;;;;;4.17;4.10;;;1.90;55.90;;;;;;6283960;28;20855;-79
2023/01/28 09:22:00;;;;;;;4.67;4.47;;;1.90;55.90;;;;;;6276721;28;20233;-79
2023/01/28 09:25:03;;;;;;;4.70;4.50;;;2.00;55.90;;;;;;6280757;28;20238;-81
2023/01/28 09:28:06;;;;;;;4.40;4.30;;;2.00;55.80;;;;;;6287574;28;20267;-83
2023/01/28 09:31:11;;;;;;;4.03;3.93;;;2.00;55.60;;;;;;6285071;28;20261;-80
2023/01/28 09:34:16;;;;;;;4.47;4.33;;;2.00;55.60;;;;;;6280389;28;20232;-78
2023/01/28 09:37:19;;;;;;;3.97;3.97;;;2.00;55.50;;;;;;6259143;28;20233;-81
2023/01/28 09:40:31;;;;;;;4.33;4.17;;;2.00;55.90;;;;;;6260242;28;20230;-81
2023/01/28 09:43:48;;;;;;;4.30;4.00;;;2.00;56.50;;;;;;6265399;28;20808;-79
2023/01/28 09:46:51;;;;;;;4.50;4.40;;;2.00;56.40;;;;;;6256745;28;20309;-80
2023/01/28 09:50:00;;;;;;;3.87;3.77;;;2.10;56.60;;;;;;6243946;28;20230;-82
2023/01/28 09:53:07;;;;;;;4.27;4.00;;;2.10;56.70;;;;;;6255234;28;20247;-79
2023/01/28 09:56:15;;;;;;;4.83;4.63;;;2.10;56.20;;;;;;6257847;28;20238;-77
2023/01/28 09:59:20;;;;;;;4.60;4.50;;;2.10;56.20;;;;;;6240226;28;20330;-81
2023/01/28 10:02:45;;;;;;;4.40;4.20;;;2.20;55.70;;;;;;6270176;28;20246;-80
2023/01/28 10:05:59;;;;;;;4.47;4.37;;;2.20;55.80;;;;;;6252523;28;20824;-82
2023/01/28 10:09:34;;;;;;;4.47;4.17;;;2.10;56.00;;;;;;6257600;28;20249;-79
2023/01/28 10:12:47;;;;;;;4.10;4.10;;;2.10;56.20;;;;;;6261428;28;20254;-81
2023/01/28 10:16:06;;;;;;;4.20;4.10;;;2.20;55.60;;;;;;6267895;28;20233;-79
2023/01/28 10:19:16;;;;;;;3.97;3.87;;;2.10;55.80;;;;;;6263959;28;20222;-78
2023/01/28 10:22:25;;;;;;;4.47;4.23;;;2.10;55.20;;;;;;6265841;28;20230;-82
2023/01/28 10:25:31;;;;;;;3.37;3.37;;;2.00;55.90;;;;;;6255294;28;20766;-82
2023/01/28 10:28:35;;;;;;;3.60;3.53;;;2.00;56.10;;;;;;6258464;28;20722;-80
2023/01/28 10:31:44;;;;;;;4.57;4.47;;;2.10;56.20;;;;;;6267638;28;20234;-81
2023/01/28 10:34:47;;;;;;;3.67;3.63;;;2.10;56.10;;;;;;6265022;28;20242;-79
2023/01/28 10:38:09;;;;;;;3.83;3.73;;;2.10;56.20;;;;;;6261350;28;20233;-81
2023/01/28 10:41:24;;;;;;;4.13;4.03;;;2.20;56.20;;;;;;6267256;28;20230;-79
2023/01/28 10:44:35;;;;;;;3.67;3.47;;;2.20;55.90;;;;;;6259140;28;20269;-78
2023/01/28 10:47:43;;;;;;;3.67;3.57;;;2.20;55.90;;;;;;6283076;28;20218;-77
2023/01/28 10:50:55;;;;;;;5.13;4.90;;;2.30;55.70;;;;;;6269526;28;20238;-79
2023/01/28 10:54:01;;;;;;;3.93;3.57;;;2.30;55.40;;;;;;6260247;28;20345;-81
2023/01/28 10:57:11;;;;;;;3.97;3.87;;;2.30;55.40;;;;;;6252768;28;20261;-82
2023/01/28 11:00:23;;;;;;;3.73;3.70;;;2.30;55.80;;;;;;6280131;28;20217;-78
2023/01/28 11:03:28;;;;;;;3.57;3.47;;;2.30;56.10;;;;;;6295455;28;20293;-78
2023/01/28 11:06:32;;;;;;;3.97;3.77;;;2.20;56.30;;;;;;6299558;28;20257;-80
2023/01/28 11:09:39;;;;;;;3.73;3.63;;;2.30;55.50;;;;;;6298838;28;20405;-78
2023/01/28 11:12:42;;;;;;;3.97;3.77;;;2.30;55.50;;;;;;6290417;28;20238;-77
2023/01/28 11:15:49;;;;;;;3.83;3.73;;;2.30;55.80;;;;;;6293152;28;20281;-77
2023/01/28 11:19:05;;;;;;;4.13;3.90;;;2.40;56.10;;;;;;6271736;28;20252;-77
2023/01/28 11:22:23;;;;;;;4.00;3.90;;;2.30;55.70;;;;;;6271750;28;20308;-80
2023/01/28 11:25:31;;;;;;;4.00;3.90;;;2.30;55.90;;;;;;6268404;28;20234;-80
2023/01/28 11:28:42;;;;;;;3.53;3.43;;;2.30;55.70;;;;;;6261530;28;20230;-79
2023/01/28 11:31:45;;;;;;;3.93;3.80;;;2.30;56.10;;;;;;6270289;28;20426;-78
2023/01/28 11:34:53;;;;;;;4.37;4.17;;;2.30;56.40;;;;;;6268960;28;20859;-81
2023/01/28 11:37:57;;;;;;;4.00;3.90;;;2.30;55.50;;;;;;6266645;28;20253;-79
2023/01/28 11:41:02;;;;;;;3.57;3.57;;;2.20;55.80;;;;;;6279561;28;20241;-76
2023/01/28 11:44:15;;;;;;;3.63;3.60;;;2.20;56.20;;;;;;6292998;28;20252;-77
2023/01/28 11:47:43;;;;;;;3.87;3.70;;;2.30;56.50;;;;;;6289311;28;20249;-77
2023/01/28 11:50:52;;;;;;;4.73;4.40;;;2.20;56.70;;;;;;6295474;28;20236;-77
2023/01/28 11:54:22;;;;;;;3.90;3.60;;;2.20;56.30;;;;;;6274057;28;20313;-80
2023/01/28 11:57:34;;;;;;;4.10;3.90;;;2.20;56.60;;;;;;6257537;28;20236;-80
2023/01/28 12:00:43;;;;;;;4.23;3.93;;;2.10;57.20;;;;;;6265139;28;20684;-79
2023/01/28 12:04:17;;;;;;;4.40;4.17;;;2.10;57.90;;;;;;6265483;28;20254;-78
2023/01/28 12:07:35;;;;;;;4.43;4.00;;;1.90;59.00;;;;;;6261780;28;20233;-82
2023/01/28 12:10:44;;;;;;;4.20;4.10;;;1.80;59.70;;;;;;6265203;28;20727;-80
2023/01/28 12:14:01;;;;;;;4.70;4.50;;;1.70;60.10;;;;;;6264647;28;20241;-81
2023/01/28 12:17:18;;;;;;;5.13;3.73;;;1.70;60.40;;;;;;6268838;28;20957;-78
2023/01/28 12:20:30;;;;;;;4.53;4.33;;;1.90;60.50;;;;;;6267629;28;20226;-80
2023/01/28 12:23:53;;;;;;;3.90;3.90;;;1.80;60.60;;;;;;6258279;28;20234;-80
2023/01/28 12:27:06;;;;;;;3.70;3.60;;;1.80;60.60;;;;;;6248715;28;20257;-80
2023/01/28 12:30:25;;;;;;;3.93;3.73;;;1.70;60.90;;;;;;6250700;28;20235;-81
2023/01/28 12:33:56;;;;;;;3.90;3.80;;;1.70;61.10;;;;;;6249484;28;20240;-79
2023/01/28 12:37:10;;;;;;;3.83;3.73;;;1.70;61.00;;;;;;6263729;28;20608;-78
2023/01/28 12:40:40;;;;;;;4.17;4.17;;;1.60;60.90;;;;;;6256339;28;20260;-79
2023/01/28 12:43:54;;;;;;;4.30;4.20;;;1.50;61.50;;;;;;6261432;28;20852;-80
2023/01/28 12:47:02;;;;;;;4.50;4.40;;;1.50;61.80;;;;;;6260698;28;20234;-78
2023/01/28 12:50:15;;;;;;;4.87;4.57;;;1.50;61.20;;;;;;6261188;28;20236;-79
2023/01/28 12:53:25;;;;;;;4.67;4.47;;;1.50;61.50;;;;;;6260064;28;20252;-79
2023/01/28 12:56:33;;;;;;;3.90;3.80;;;1.50;61.50;;;;;;6262218;28;20238;-81
2023/01/28 12:59:44;;;;;;;4.70;4.60;;;1.60;61.50;;;;;;6269077;28;20252;-80
2023/01/28 13:02:56;;;;;;;4.00;3.83;;;1.60;61.30;;;;;;6261997;28;20712;-80
2023/01/28 13:06:04;;;;;;;4.03;3.73;;;1.50;61.30;;;;;;6279581;28;20241;-77
2023/01/28 13:09:16;;;;;;;4.30;4.20;;;1.50;61.30;;;;;;6292213;28;20226;-79
2023/01/28 13:12:21;;;;;;;4.50;4.40;;;1.50;61.20;;;;;;6290560;28;20221;-76
2023/01/28 13:15:24;;;;;;;3.93;3.83;;;1.50;61.20;;;;;;6297668;28;20214;-77
2023/01/28 13:18:42;;;;;;;4.30;4.10;;;1.40;61.20;;;;;;6296929;28;20229;-78
2023/01/28 13:21:48;;;;;;;3.87;3.77;;;1.40;61.40;;;;;;6286003;28;20654;-79
2023/01/28 13:24:53;;;;;;;4.13;4.10;;;1.50;61.20;;;;;;6291380;28;20313;-78
2023/01/28 13:27:59;;;;;;;4.13;4.03;;;1.50;61.60;;;;;;6287135;28;20274;-77
2023/01/28 13:31:04;;;;;;;4.67;4.50;;;1.50;61.90;;;;;;6292602;28;20241;-77
2023/01/28 13:34:28;;;;;;;5.03;4.57;;;1.60;62.00;;;;;;6299464;28;20316;-79
2023/01/28 13:37:34;;;;;;;4.07;3.97;;;1.70;62.50;;;;;;6287969;28;20224;-76
2023/01/28 13:40:40;;;;;;;4.00;3.90;;;1.80;62.70;;;;;;6289338;28;20222;-77
2023/01/28 13:43:43;;;;;;;3.93;3.83;;;1.80;62.20;;;;;;6294840;28;20297;-77
2023/01/28 13:46:46;;;;;;;4.10;3.80;;;1.80;62.20;;;;;;6298514;28;20218;-79
2023/01/28 13:49:56;;;;;;;3.80;3.70;;;1.80;62.40;;;;;;6302341;28;20282;-77
2023/01/28 13:53:03;;;;;;;4.27;4.17;;;1.90;62.20;;;;;;6294586;28;20241;-78
2023/01/28 13:56:18;;;;;;;4.50;4.40;;;1.90;61.60;;;;;;6283985;28;20327;-77
2023/01/28 13:59:43;;;;;;;3.57;3.50;;;1.90;61.80;;;;;;6292428;28;20213;-80
2023/01/28 14:03:19;;;;;;;4.47;4.30;;;2.00;62.10;;;;;;6296304;28;20309;-77
2023/01/28 14:06:52;;;;;;;4.40;4.30;;;2.00;61.90;;;;;;6285487;28;20715;-79
2023/01/28 14:10:23;;;;;;;4.10;4.10;;;2.10;62.00;;;;;;6290695;28;20261;-80
2023/01/28 14:13:52;;;;;;;4.13;3.90;;;2.10;61.50;;;;;;6277172;28;20252;-79
2023/01/28 14:16:58;;;;;;;3.67;3.67;;;2.00;61.30;;;;;;6262444;28;20767;-79
2023/01/28 14:20:03;;;;;;;3.60;3.50;;;2.10;61.30;;;;;;6262725;28;20809;-78
2023/01/28 14:23:16;;;;;;;3.97;3.77;;;2.00;60.90;;;;;;6252947;28;20459;-79
2023/01/28 14:26:41;;;;;;;4.17;4.07;;;2.10;60.30;;;;;;6266365;28;20734;-79
2023/01/28 14:29:58;;;;;;;3.80;3.80;;;2.10;59.90;;;;;;6261330;28;20230;-78
2023/01/28 14:33:02;;;;;;;3.83;3.73;;;2.00;59.30;;;;;;6264137;28;20298;-78
2023/01/28 14:36:06;;;;;;;3.97;3.80;;;2.00;58.60;;;;;;6263785;28;20241;-79
2023/01/28 14:39:17;;;;;;;4.20;4.17;;;2.00;58.90;;;;;;6264879;28;20258;-78
2023/01/28 14:42:23;;;;;;;4.30;4.20;;;2.00;59.10;;;;;;6263513;28;20302;-78
2023/01/28 14:45:45;;;;;;;4.10;4.00;;;2.00;58.90;;;;;;6265529;28;20713;-77
2023/01/28 14:48:57;;;;;;;3.80;3.80;;;2.00;58.90;;;;;;6263209;28;20238;-80
2023/01/28 14:52:14;;;;;;;4.10;3.90;;;2.00;58.70;;;;;;6267636;28;20736;-78
2023/01/28 14:55:32;;;;;;;4.50;4.30;;;2.00;58.10;;;;;;6266555;28;20246;-79
2023/01/28 14:58:39;;;;;;;4.73;4.53;;;1.90;57.20;;;;;;6271453;28;20233;-78
2023/01/28 15:01:46;;;;;;;3.90;3.90;;;1.90;56.90;;;;;;6264334;28;20236;-79
2023/01/28 15:04:50;;;;;;;4.30;4.20;;;1.90;57.20;;;;;;6267372;28;20593;-78
2023/01/28 15:07:54;;;;;;;4.00;3.90;;;1.80;57.10;;;;;;6265529;28;20709;-80
2023/01/28 15:11:01;;;;;;;3.70;3.60;;;1.70;57.00;;;;;;6255247;28;20229;-80
2023/01/28 15:14:05;;;;;;;4.30;4.23;;;1.70;57.20;;;;;;6273995;28;20730;-80
2023/01/28 15:17:22;;;;;;;3.70;3.70;;;1.70;57.20;;;;;;6248947;28;20234;-80
2023/01/28 15:20:25;;;;;;;3.93;3.80;;;1.60;57.60;;;;;;6269977;28;20245;-78
2023/01/28 15:23:33;;;;;;;4.37;4.17;;;1.50;57.90;;;;;;6266554;28;20732;-77
2023/01/28 15:26:37;;;;;;;4.30;4.20;;;1.40;57.90;;;;;;6260015;28;20321;-79
2023/01/28 15:29:40;;;;;;;4.83;4.53;;;1.50;58.10;;;;;;6268611;28;20240;-80
2023/01/28 15:32:43;;;;;;;3.90;3.80;;;1.40;58.40;;;;;;6263278;28;20238;-77
2023/01/28 15:35:47;;;;;;;4.60;4.50;;;1.40;58.00;;;;;;6268895;28;20256;-78
2023/01/28 15:38:50;;;;;;;4.27;4.07;;;1.40;58.00;;;;;;6269149;28;20246;-77
2023/01/28 15:41:57;;;;;;;3.53;3.53;;;1.20;58.10;;;;;;6259438;28;20238;-77
2023/01/28 15:45:01;;;;;;;4.37;4.27;;;1.20;58.30;;;;;;6254294;28;20815;-77
2023/01/28 15:48:07;;;;;;;4.40;4.30;;;1.30;58.40;;;;;;6260416;28;20253;-78
2023/01/28 15:51:19;;;;;;;3.53;3.43;;;1.30;58.30;;;;;;6270960;28;20625;-79
2023/01/28 15:54:23;;;;;;;4.13;4.03;;;1.30;58.40;;;;;;6261378;28;20353;-79
2023/01/28 15:57:31;;;;;;;4.73;4.53;;;1.20;58.30;;;;;;6263154;28;20237;-81
2023/01/28 16:00:34;;;;;;;4.43;4.33;;;1.20;58.20;;;;;;6262357;28;20232;-81
2023/01/28 16:03:39;;;;;;;3.80;3.70;;;1.30;58.60;;;;;;6267479;28;20327;-79
2023/01/28 16:06:42;;;;;;;3.80;3.80;;;1.30;58.20;;;;;;6256043;28;20238;-78
2023/01/28 16:09:52;;;;;;;4.87;4.50;;;1.20;58.50;;;;;;6258456;28;20237;-79
2023/01/28 16:13:03;;;;;;;4.43;4.23;;;1.20;58.70;;;;;;6256974;28;20246;-77
2023/01/28 16:16:08;;;;;;;4.70;4.37;;;1.20;58.90;;;;;;6261298;28;20250;-78
2023/01/28 16:19:25;;;;;;;4.97;4.80;;;1.20;59.10;;;;;;6263720;28;20244;-75
2023/01/28 16:22:34;;;;;;;4.87;4.67;;;1.20;59.40;;;;;;6258917;28;20529;-77
2023/01/28 16:25:37;;;;;;;5.10;5.00;;;1.10;59.50;;;;;;6260798;28;20300;-77
2023/01/28 16:28:41;;;;;;;4.13;4.03;;;1.10;59.50;;;;;;6256912;28;20620;-79
2023/01/28 16:31:44;;;;;;;4.33;4.23;;;1.10;59.00;;;;;;6263651;28;20266;-76
2023/01/28 16:34:47;;;;;;;4.90;4.70;;;1.10;58.90;;;;;;6255765;28;20238;-76
2023/01/28 16:37:51;;;;;;;4.47;4.17;;;1.10;58.70;;;;;;6265725;28;20245;-76
2023/01/28 16:40:54;;;;;;;4.60;4.50;;;1.00;59.00;;;;;;6262947;28;20225;-77
2023/01/28 16:44:01;;;;;;;4.30;4.20;;;1.00;59.30;;;;;;6262327;28;20744;-77
2023/01/28 16:47:05;;;;;;;4.47;4.47;;;1.00;58.70;;;;;;6262783;28;20244;-77
2023/01/28 16:50:11;;;;;;;4.20;4.10;;;1.00;58.50;;;;;;6266240;28;20248;-76
2023/01/28 16:53:20;;;;;;;5.13;5.03;;;1.00;58.90;;;;;;6253555;28;20242;-76
2023/01/28 16:56:26;;;;;;;4.63;4.40;;;1.00;58.80;;;;;;6254783;28;20341;-77
2023/01/28 16:59:49;;;;;;;4.43;4.23;;;1.00;58.90;;;;;;6269563;28;20258;-77
2023/01/28 17:02:54;;;;;;;4.77;4.67;;;1.00;58.80;;;;;;6261231;28;20325;-79
2023/01/28 17:05:57;;;;;;;4.10;4.00;;;1.00;58.60;;;;;;6268386;28;20370;-79
2023/01/28 17:09:00;;;;;;;4.83;4.73;;;0.90;58.60;;;;;;6270475;28;20617;-77
2023/01/28 17:12:04;;;;;;;4.10;4.00;;;1.00;59.00;;;;;;6264453;28;20629;-78
2023/01/28 17:15:10;;;;;;;4.10;3.90;;;0.90;59.10;;;;;;6270204;28;20591;-78
2023/01/28 17:18:13;;;;;;;4.30;4.07;;;1.00;58.90;;;;;;6265300;28;20233;-77
2023/01/28 17:21:17;;;;;;;3.73;3.70;;;0.90;59.00;;;;;;6263591;28;20368;-76
2023/01/28 17:24:20;;;;;;;4.80;4.70;;;0.90;58.60;;;;;;6266718;28;20256;-77
2023/01/28 17:27:23;;;;;;;4.50;4.30;;;0.80;59.10;;;;;;6273851;28;20229;-75
2023/01/28 17:30:28;;;;;;;4.97;4.67;;;0.90;59.00;;;;;;6266151;28;20241;-77
2023/01/28 17:33:32;;;;;;;5.13;4.73;;;0.90;58.70;;;;;;6267558;28;20242;-77
2023/01/28 17:36:35;;;;;;;4.80;4.50;;;0.90;58.70;;;;;;6260871;28;20234;-79
2023/01/28 17:39:38;;;;;;;5.03;4.80;;;1.00;58.70;;;;;;6258274;28;20247;-76
2023/01/28 17:42:41;;;;;;;4.40;4.20;;;1.00;58.70;;;;;;6266040;28;20278;-76
2023/01/28 17:45:46;;;;;;;4.60;4.40;;;0.90;58.70;;;;;;6270931;28;20234;-78
2023/01/28 17:48:49;;;;;;;4.93;4.83;;;0.80;59.20;;;;;;6267930;28;20230;-77
2023/01/28 17:51:52;;;;;;;5.13;4.97;;;0.80;59.30;;;;;;6278975;28;20249;-76
2023/01/28 17:54:55;;;;;;;4.80;4.67;;;0.80;59.70;;;;;;6262853;28;20262;-76
2023/01/28 17:57:58;;;;;;;5.57;5.37;;;0.80;59.70;;;;;;6262969;28;20234;-78
2023/01/28 18:01:09;;;;;;;4.60;4.50;;;0.80;59.70;;;;;;6270716;28;20321;-77
2023/01/28 18:04:13;;;;;;;4.97;4.77;;;0.80;59.90;;;;;;6246408;28;20249;-77
2023/01/28 18:07:16;;;;;;;4.70;4.60;;;0.80;59.70;;;;;;6257430;28;20236;-77
2023/01/28 18:10:19;;;;;;;5.13;4.93;;;0.70;59.70;;;;;;6251704;28;20229;-79
2023/01/28 18:13:22;;;;;;;5.43;5.07;;;0.70;59.60;;;;;;6266720;28;20245;-78
2023/01/28 18:16:27;;;;;;;5.57;5.23;;;0.60;59.40;;;;;;6266987;28;20250;-77
2023/01/28 18:19:30;;;;;;;5.47;5.00;;;0.60;59.50;;;;;;6263141;28;20230;-76
2023/01/28 18:22:33;;;;;;;4.70;4.50;;;0.50;59.80;;;;;;6265159;28;20234;-76
2023/01/28 18:25:36;;;;;;;5.83;5.43;;;0.50;59.40;;;;;;6257707;28;20233;-77
2023/01/28 18:28:39;;;;;;;5.57;5.27;;;0.50;59.50;;;;;;6252228;28;20337;-79
2023/01/28 18:31:43;;;;;;;5.33;5.13;;;0.40;59.50;;;;;;6266220;28;20238;-76
2023/01/28 18:34:47;;;;;;;4.70;4.60;;;0.40;59.80;;;;;;6265204;28;20230;-75
2023/01/28 18:37:50;;;;;;;5.23;5.03;;;0.40;59.90;;;;;;6262810;28;20226;-77
2023/01/28 18:40:55;;;;;;;5.47;5.17;;;0.30;59.90;;;;;;6261665;28;20233;-76
2023/01/28 18:43:58;;;;;;;5.63;5.43;;;0.20;60.00;;;;;;6264015;28;20247;-78
2023/01/28 18:47:02;;;;;;;5.63;5.33;;;0.20;60.10;;;;;;6262560;28;20485;-76
2023/01/28 18:50:06;;;;;;;5.50;5.00;;;0.20;60.20;;;;;;6265179;28;20635;-78
2023/01/28 18:53:09;;;;;;;5.53;5.33;;;0.10;60.20;;;;;;6280209;28;20234;-78
2023/01/28 18:56:12;;;;;;;5.37;5.13;;;0.10;60.60;;;;;;6273790;28;20279;-79
2023/01/28 18:59:15;;;;;;;5.57;5.20;;;0.10;60.70;;;;;;6285550;28;20221;-77
2023/01/28 19:02:20;;;;;;;5.20;5.00;;;0.10;60.70;;;;;;6302653;28;20237;-76
2023/01/28 19:05:23;;;;;;;5.70;5.40;;;0.10;60.80;;;;;;6284524;28;20211;-76
2023/01/28 19:08:26;;;;;;;6.43;5.90;;;0.20;61.00;;;;;;6282548;28;20217;-76
2023/01/28 19:11:30;;;;;;;5.67;5.37;;;0.00;61.10;;;;;;6301328;28;20287;-74
2023/01/28 19:14:33;;;;;;;5.37;5.10;;;0.00;61.30;;;;;;6258772;28;20869;-80
2023/01/28 19:17:38;;;;;;;4.97;4.63;;;0.10;61.30;;;;;;6257117;28;20230;-80
2023/01/28 19:20:41;;;;;;;5.40;5.20;;;0.00;61.60;;;;;;6259323;28;20699;-81
2023/01/28 19:23:44;;;;;;;5.80;5.40;;;0.10;61.40;;;;;;6261859;28;20292;-81
2023/01/28 19:26:52;;;;;;;5.20;4.97;;;0.10;61.40;;;;;;6263592;28;20230;-81
2023/01/28 19:29:56;;;;;;;5.70;5.13;;;0.00;61.60;;;;;;6267634;28;20222;-82
2023/01/28 19:33:01;;;;;;;5.60;5.30;;;0.00;61.70;;;;;;6280042;28;20229;-79
2023/01/28 19:36:04;;;;;;;5.53;5.03;;;0.10;61.60;;;;;;6277122;28;20238;-80
2023/01/28 19:39:09;;;;;;;5.10;5.00;;;0.00;61.80;;;;;;6293718;28;20288;-78
2023/01/28 19:42:12;;;;;;;5.73;5.53;;;0.10;61.80;;;;;;6294412;28;20263;-77
2023/01/28 19:45:15;;;;;;;5.97;5.67;;;0.10;61.70;;;;;;6293633;28;20285;-78
2023/01/28 19:48:20;;;;;;;6.00;5.60;;;0.00;61.80;;;;;;6191909;28;20329;-82
2023/01/28 19:51:24;;;;;;;5.33;5.20;;;0.00;62.00;;;;;;6262898;28;20241;-80
2023/01/28 19:54:27;;;;;;;5.70;5.50;;;0.00;61.90;;;;;;6261440;28;20768;-80
2023/01/28 19:57:30;;;;;;;5.07;4.87;;;0.00;62.00;;;;;;6263322;28;20233;-80
2023/01/28 20:00:34;;;;;;;6.27;5.67;;;0.00;62.00;;;;;;6258283;28;20237;-80
2023/01/28 20:03:39;;;;;;;6.07;5.77;;;0.00;62.00;;;;;;6254594;28;20241;-82
2023/01/28 20:06:42;;;;;;;6.53;6.03;;;0.00;62.30;;;;;;6267427;28;20290;-81
2023/01/28 20:09:46;;;;;;;6.03;5.63;;;0.00;62.50;;;;;;6172182;28;20632;-83
2023/01/28 20:12:49;;;;;;;5.57;5.37;;;0.00;62.50;;;;;;6272429;28;20229;-80
2023/01/28 20:15:52;;;;;;;5.87;5.67;;;0.00;62.50;;;;;;6274372;28;20230;-81
2023/01/28 20:18:59;;;;;;;5.43;5.23;;;0.00;62.50;;;;;;6283880;28;20316;-82
2023/01/28 20:22:03;;;;;;;5.53;5.23;;;0.00;62.50;;;;;;6274552;28;20726;-82
2023/01/28 20:25:08;;;;;;;5.60;5.30;;;0.00;62.70;;;;;;6268636;28;20230;-81
2023/01/28 20:28:11;;;;;;;6.00;5.40;;;0.00;62.60;;;;;;6269249;28;20241;-82
2023/01/28 20:31:14;;;;;;;5.67;5.47;;;-0.10;62.80;;;;;;6273128;28;20244;-81
2023/01/28 20:34:20;;;;;;;6.57;6.23;;;-0.10;63.00;;;;;;6263882;28;20380;-82
2023/01/28 20:37:24;;;;;;;6.60;6.30;;;-0.10;63.20;;;;;;6261088;28;20749;-81
2023/01/28 20:40:30;;;;;;;6.10;5.63;;;-0.10;63.20;;;;;;6261358;28;20232;-81
2023/01/28 20:43:34;;;;;;;6.73;6.43;;;-0.20;63.50;;;;;;6261642;28;20272;-84
2023/01/28 20:46:42;;;;;;;7.23;6.57;;;-0.20;63.50;;;;;;6258237;28;20237;-83
2023/01/28 20:49:47;;;;;;;6.97;6.27;;;-0.20;63.70;;;;;;6262907;28;20241;-81
2023/01/28 20:52:50;;;;;;;6.77;6.23;;;-0.20;63.90;;;;;;6260249;28;20291;-84
2023/01/28 20:55:57;;;;;;;6.53;6.13;;;-0.30;64.10;;;;;;6266543;28;20221;-81
2023/01/28 20:59:01;;;;;;;10.10;6.73;;;-0.30;64.00;;;;;;6266666;28;20337;-82
2023/01/28 21:02:05;;;;;;;6.13;5.83;;;-0.20;63.90;;;;;;6263657;28;20249;-82
2023/01/28 21:05:11;;;;;;;6.40;6.20;;;-0.20;64.00;;;;;;6263183;28;20335;-80
2023/01/28 21:08:16;;;;;;;6.20;5.87;;;-0.20;63.90;;;;;;6261917;28;20230;-80
2023/01/28 21:11:19;;;;;;;5.87;5.67;;;-0.30;64.10;;;;;;6259615;28;20632;-80
2023/01/28 21:14:23;;;;;;;6.00;5.73;;;-0.30;64.20;;;;;;6227875;28;20254;-82
2023/01/28 21:17:26;;;;;;;6.67;6.27;;;-0.30;64.10;;;;;;6256270;28;20242;-82
2023/01/28 21:20:32;;;;;;;6.50;6.10;;;-0.40;64.30;;;;;;6253492;28;20234;-81
2023/01/28 21:23:35;;;;;;;6.63;6.33;;;-0.40;64.60;;;;;;6264920;28;20248;-82
2023/01/28 21:26:41;;;;;;;6.73;6.43;;;-0.50;64.50;;;;;;6264757;28;20259;-80
2023/01/28 21:29:44;;;;;;;6.40;6.03;;;-0.50;64.70;;;;;;6246829;28;20634;-80
2023/01/28 21:32:48;;;;;;;6.13;5.73;;;-0.60;65.10;;;;;;6250992;28;20245;-82
2023/01/28 21:35:52;;;;;;;6.50;6.10;;;-0.60;65.10;;;;;;6264278;28;20229;-79
2023/01/28 21:38:57;;;;;;;6.87;6.50;;;-0.60;65.10;;;;;;6264390;28;20238;-82
2023/01/28 21:42:00;;;;;;;7.07;6.40;;;-0.70;65.30;;;;;;6246502;28;20378;-80
2023/01/28 21:45:04;;;;;;;7.10;6.50;;;-0.70;65.40;;;;;;6243374;28;20242;-81
2023/01/28 21:48:09;;;;;;;5.93;5.70;;;-0.70;65.60;;;;;;6243030;28;20322;-82
2023/01/28 21:54:34;;;;;;;7.37;6.97;;;-0.70;65.80;;;;;;6262025;28;20621;-81
2023/01/28 21:57:37;;;;;;;7.00;6.43;;;-0.80;65.80;;;;;;6266728;28;20244;-80
2023/01/28 22:00:40;;;;;;;7.67;6.97;;;-0.90;66.00;;;;;;6268114;28;20650;-82
2023/01/28 22:03:43;;;;;;;7.33;6.77;;;-0.90;66.20;;;;;;6268289;28;20423;-82
2023/01/28 22:06:48;;;;;;;7.23;6.77;;;-0.90;66.20;;;;;;6268847;28;20733;-81
2023/01/28 22:09:52;;;;;;;7.40;7.07;;;-0.90;66.50;;;;;;6268497;28;20333;-82
2023/01/28 22:12:55;;;;;;;7.17;6.57;;;-1.00;66.50;;;;;;6267141;28;20268;-80
2023/01/28 22:15:59;;;;;;;7.07;6.57;;;-1.00;66.60;;;;;;6266825;28;20325;-81
2023/01/28 22:19:02;;;;;;;6.80;6.47;;;-0.90;66.50;;;;;;6268000;28;20659;-81
2023/01/28 22:22:07;;;;;;;7.73;6.97;;;-1.00;66.60;;;;;;6267252;28;20320;-84
2023/01/28 22:25:10;;;;;;;7.10;6.67;;;-1.00;66.80;;;;;;6265274;28;20230;-83
2023/01/28 22:28:14;;;;;;;7.50;7.00;;;-1.00;66.70;;;;;;6266515;28;20372;-83
2023/01/28 22:31:18;;;;;;;6.83;6.43;;;-1.00;66.60;;;;;;6260459;28;20245;-85
2023/01/28 22:34:22;;;;;;;7.50;7.00;;;-0.90;66.60;;;;;;6246258;28;20254;-82
2023/01/28 22:37:27;;;;;;;7.43;7.03;;;-1.00;66.90;;;;;;6248903;28;20261;-80
2023/01/28 22:40:30;;;;;;;8.03;7.33;;;-1.00;67.00;;;;;;6266287;28;20226;-83
2023/01/28 22:43:34;;;;;;;8.73;7.87;;;-1.00;67.00;;;;;;6256249;28;20799;-81
2023/01/28 22:46:37;;;;;;;7.27;6.77;;;-0.90;66.80;;;;;;6242003;28;20227;-81
2023/01/28 22:49:41;;;;;;;8.23;7.63;;;-0.90;66.60;;;;;;6241656;28;20308;-82
2023/01/28 22:52:47;;;;;;;8.90;7.53;;;-0.90;66.80;;;;;;6257358;28;20257;-80
2023/01/28 22:55:51;;;;;;;9.00;8.17;;;-0.90;66.80;;;;;;6242429;28;20241;-83
2023/01/28 22:58:55;;;;;;;8.27;7.63;;;-0.80;66.70;;;;;;6241372;28;20373;-82
2023/01/28 23:01:58;;;;;;;8.70;7.80;;;-0.80;66.80;;;;;;6246063;28;20315;-82
2023/01/28 23:05:02;;;;;;;8.90;8.10;;;-0.80;66.90;;;;;;6239787;28;20246;-83
2023/01/28 23:08:18;;;;;;;8.40;7.80;;;-0.70;66.70;;;;;;6254670;28;20244;-82
2023/01/28 23:11:26;;;;;;;8.07;7.47;;;-0.70;66.60;;;;;;6268881;28;20226;-81
2023/01/28 23:24:40;;;;;;;9.13;8.37;;;-0.50;66.20;;;;;;6239774;28;20239;-82
2023/01/28 23:27:44;;;;;;;9.87;8.73;;;-0.60;66.50;;;;;;6240752;28;20234;-82
2023/01/28 23:30:48;;;;;;;8.47;7.93;;;-0.60;66.50;;;;;;6239432;28;20243;-81
2023/01/28 23:33:51;;;;;;;10.37;9.37;;;-0.60;66.40;;;;;;6240996;28;20242;-83
2023/01/28 23:36:55;;;;;;;10.63;9.70;;;-0.50;66.30;;;;;;6262119;28;20336;-79
2023/01/28 23:40:00;;;;;;;10.10;9.13;;;-0.60;66.60;;;;;;6264676;28;20247;-81
2023/01/28 23:43:04;;;;;;;10.17;9.27;;;-0.60;66.60;;;;;;6263241;28;20714;-83
2023/01/28 23:46:07;;;;;;;10.03;9.33;;;-0.60;66.60;;;;;;6252021;28;20851;-81
2023/01/28 23:49:11;;;;;;;10.97;10.07;;;-0.50;66.50;;;;;;6263724;28;20730;-80
2023/01/28 23:52:14;;;;;;;10.90;9.53;;;-0.60;66.60;;;;;;6263522;28;20230;-82
2023/01/28 23:55:21;;;;;;;10.47;9.60;;;-0.60;66.70;;;;;;6262509;28;20240;-81
2023/01/28 23:58:25;;;;;;;11.57;10.67;;;-0.60;66.80;;;;;;6263293;28;20633;-82
